createdAt,value
2022-10-17T00:00:45.603Z,12.70
2022-10-17T00:03:13.139Z,12.10
2022-10-17T00:05:41.491Z,12.50
2022-10-17T00:08:09.021Z,12.80
2022-10-17T00:10:36.715Z,14.23
2022-10-17T00:13:05.865Z,13.30
2022-10-17T00:15:33.643Z,13.17
2022-10-17T00:18:01.198Z,14.47
2022-10-17T00:20:30.545Z,12.70
2022-10-17T00:22:58.132Z,12.70
2022-10-17T00:25:25.728Z,13.13
2022-10-17T00:27:53.710Z,11.43
2022-10-17T00:30:22.567Z,11.93
2022-10-17T00:32:50.324Z,12.33
2022-10-17T00:35:18.281Z,13.90
2022-10-17T00:37:45.830Z,12.33
2022-10-17T00:40:13.523Z,12.40
2022-10-17T00:42:41.364Z,13.37
2022-10-17T00:45:13.451Z,12.37
2022-10-17T00:47:47.622Z,12.20
2022-10-17T00:50:15.728Z,11.13
2022-10-17T00:52:43.731Z,10.60
2022-10-17T00:55:13.549Z,11.43
2022-10-17T00:57:42.029Z,10.80
2022-10-17T01:00:11.528Z,10.50
2022-10-17T01:02:39.399Z,11.70
2022-10-17T01:05:09.361Z,10.57
2022-10-17T01:07:37.571Z,11.20
2022-10-17T01:10:06.372Z,11.17
2022-10-17T01:12:39.721Z,9.73
2022-10-17T01:15:12.155Z,10.37
2022-10-17T01:17:45.749Z,10.07
2022-10-17T01:20:26.145Z,9.30
2022-10-17T01:22:58.453Z,9.53
2022-10-17T01:25:30.711Z,9.53
2022-10-17T01:28:06.928Z,10.03
2022-10-17T01:30:53.805Z,10.20
2022-10-17T01:33:28.411Z,10.30
2022-10-17T01:36:01.719Z,9.60
2022-10-17T01:38:34.960Z,9.60
2022-10-17T01:41:04.455Z,10.20
2022-10-17T01:43:35.019Z,9.27
2022-10-17T01:46:04.389Z,9.53
2022-10-17T01:48:35.331Z,9.63
2022-10-17T01:51:07.451Z,9.83
2022-10-17T01:53:36.769Z,9.03
2022-10-17T01:56:07.919Z,9.73
2022-10-17T01:58:37.816Z,9.60
2022-10-17T02:01:07.075Z,10.30
2022-10-17T02:03:36.680Z,10.63
2022-10-17T02:06:06.936Z,9.83
2022-10-17T02:08:42.288Z,9.60
2022-10-17T02:11:12.174Z,10.70
2022-10-17T02:13:46.972Z,10.00
2022-10-17T02:16:21.619Z,9.90
2022-10-17T02:19:01.108Z,9.33
2022-10-17T02:21:31.545Z,9.90
2022-10-17T02:24:03.218Z,10.50
2022-10-17T02:26:36.354Z,10.10
2022-10-17T02:29:08.157Z,9.80
2022-10-17T02:31:37.389Z,9.20
2022-10-17T02:34:07.718Z,9.70
2022-10-17T02:36:39.024Z,9.87
2022-10-17T02:39:07.430Z,10.00
2022-10-17T02:41:35.035Z,9.60
2022-10-17T02:44:04.218Z,9.80
2022-10-17T02:46:32.418Z,9.37
2022-10-17T02:49:03.141Z,9.57
2022-10-17T02:51:37.050Z,10.47
2022-10-17T02:54:07.923Z,9.40
2022-10-17T02:56:40.623Z,9.93
2022-10-17T02:59:10.777Z,9.77
2022-10-17T03:01:38.949Z,9.10
2022-10-17T03:04:07.428Z,9.47
2022-10-17T03:06:36.537Z,10.13
2022-10-17T03:09:04.319Z,9.47
2022-10-17T03:11:32.082Z,10.10
2022-10-17T03:13:59.740Z,9.77
2022-10-17T03:16:28.245Z,10.00
2022-10-17T03:18:56.358Z,10.33
2022-10-17T03:21:25.617Z,10.20
2022-10-17T03:23:54.407Z,9.60
2022-10-17T03:26:23.281Z,9.83
2022-10-17T03:28:53.663Z,10.23
2022-10-17T03:31:22.918Z,10.03
2022-10-17T03:33:52.021Z,10.00
2022-10-17T03:36:19.983Z,10.47
2022-10-17T03:38:48.362Z,11.10
2022-10-17T03:41:19.130Z,10.43
2022-10-17T03:43:46.833Z,9.97
2022-10-17T03:46:14.800Z,10.10
2022-10-17T03:48:42.574Z,9.77
2022-10-17T03:51:10.729Z,10.43
2022-10-17T03:53:45.990Z,10.13
2022-10-17T03:56:15.319Z,10.37
2022-10-17T03:58:45.385Z,10.50
2022-10-17T04:01:15.039Z,10.57
2022-10-17T04:03:43.740Z,10.70
2022-10-17T04:06:12.582Z,10.57
2022-10-17T04:08:42.928Z,10.77
2022-10-17T04:11:15.749Z,10.80
2022-10-17T04:13:45.168Z,11.50
2022-10-17T04:16:14.477Z,11.37
2022-10-17T04:18:53.579Z,10.90
2022-10-17T04:21:21.363Z,10.80
2022-10-17T04:23:48.901Z,11.53
2022-10-17T04:26:30.757Z,11.07
2022-10-17T04:28:59.731Z,11.73
2022-10-17T04:31:27.255Z,10.83
2022-10-17T04:34:20.926Z,11.47
2022-10-17T04:36:48.881Z,11.33
2022-10-17T04:39:16.718Z,11.70
2022-10-17T04:41:45.770Z,11.10
2022-10-17T04:44:14.659Z,11.47
2022-10-17T04:46:48.228Z,11.93
2022-10-17T04:49:15.845Z,10.93
2022-10-17T04:51:45.246Z,12.50
2022-10-17T04:54:24.907Z,12.30
2022-10-17T04:56:59.195Z,11.93
2022-10-17T04:59:29.810Z,12.47
2022-10-17T05:02:11.597Z,12.07
2022-10-17T05:04:39.931Z,12.37
2022-10-17T05:07:08.228Z,12.10
2022-10-17T05:09:49.447Z,12.20
2022-10-17T05:12:18.676Z,12.00
2022-10-17T05:14:48.565Z,13.50
2022-10-17T05:17:16.431Z,12.10
2022-10-17T05:19:44.882Z,12.70
2022-10-17T05:22:12.398Z,13.20
2022-10-17T05:24:40.457Z,12.37
2022-10-17T05:27:09.271Z,13.50
2022-10-17T05:29:36.758Z,12.53
2022-10-17T05:32:17.198Z,13.77
2022-10-17T05:34:44.951Z,11.93
2022-10-17T05:37:12.493Z,13.90
2022-10-17T05:39:42.734Z,11.73
2022-10-17T05:42:10.987Z,12.60
2022-10-17T05:44:39.227Z,12.50
2022-10-17T05:47:08.615Z,13.47
2022-10-17T05:49:47.350Z,11.53
2022-10-17T05:52:21.035Z,12.80
2022-10-17T05:55:00.414Z,14.07
2022-10-17T05:57:29.624Z,14.73
2022-10-17T05:59:57.947Z,13.60
2022-10-17T06:02:25.824Z,13.57
2022-10-17T06:04:55.259Z,13.83
2022-10-17T06:07:24.325Z,14.00
2022-10-17T06:09:53.180Z,14.20
2022-10-17T06:12:21.380Z,13.40
2022-10-17T06:14:49.338Z,13.53
2022-10-17T06:17:17.260Z,13.70
2022-10-17T06:19:45.611Z,13.90
2022-10-17T06:22:17.034Z,13.67
2022-10-17T06:24:45.304Z,14.13
2022-10-17T06:27:13.313Z,13.20
2022-10-17T06:29:42.100Z,13.10
2022-10-17T06:32:12.743Z,13.77
2022-10-17T06:34:45.011Z,13.33
2022-10-17T06:37:13.118Z,13.77
2022-10-17T06:39:43.325Z,15.30
2022-10-17T06:42:18.344Z,13.43
2022-10-17T06:44:56.235Z,14.60
2022-10-17T06:47:38.139Z,13.33
2022-10-17T06:50:18.578Z,13.20
2022-10-17T06:52:58.411Z,12.07
2022-10-17T06:55:45.662Z,12.33
2022-10-17T06:58:37.260Z,12.83
2022-10-17T07:01:23.415Z,12.67
2022-10-17T07:03:55.556Z,12.00
2022-10-17T07:06:24.569Z,11.70
2022-10-17T07:08:52.802Z,11.70
2022-10-17T07:11:22.729Z,10.80
2022-10-17T07:13:52.363Z,10.77
2022-10-17T07:16:21.259Z,10.27
2022-10-17T07:18:54.471Z,9.53
2022-10-17T07:21:22.347Z,10.90
2022-10-17T07:23:50.058Z,10.00
2022-10-17T07:26:18.903Z,13.93
2022-10-17T07:28:52.384Z,10.57
2022-10-17T07:31:32.983Z,11.70
2022-10-17T07:34:01.301Z,8.23
2022-10-17T07:36:29.286Z,9.07
2022-10-17T07:38:58.339Z,7.57
2022-10-17T07:41:26.906Z,8.93
2022-10-17T07:43:56.675Z,7.10
2022-10-17T07:46:30.506Z,8.00
2022-10-17T07:48:58.063Z,7.10
2022-10-17T07:51:25.628Z,6.67
2022-10-17T07:53:53.161Z,6.77
2022-10-17T07:56:24.685Z,5.90
2022-10-17T07:58:52.863Z,6.03
2022-10-17T08:01:21.748Z,6.10
2022-10-17T08:03:50.062Z,6.30
2022-10-17T08:06:18.014Z,5.70
2022-10-17T08:08:45.617Z,5.40
2022-10-17T08:11:13.895Z,5.83
2022-10-17T08:13:42.394Z,6.93
2022-10-17T08:16:10.647Z,6.37
2022-10-17T08:18:40.492Z,5.37
2022-10-17T08:21:08.671Z,6.50
2022-10-17T08:23:37.129Z,6.10
2022-10-17T08:26:06.242Z,6.00
2022-10-17T08:28:35.510Z,4.70
2022-10-17T08:31:04.315Z,5.30
2022-10-17T08:33:33.119Z,5.87
2022-10-17T08:36:02.219Z,5.27
2022-10-17T08:38:34.630Z,5.80
2022-10-17T08:41:04.683Z,5.03
2022-10-17T08:43:39.310Z,5.47
2022-10-17T08:46:09.438Z,5.10
2022-10-17T08:48:43.967Z,5.07
2022-10-17T08:51:17.921Z,4.40
2022-10-17T08:53:47.879Z,5.40
2022-10-17T08:56:19.858Z,4.90
2022-10-17T08:58:53.496Z,5.37
2022-10-17T09:01:30.457Z,4.00
2022-10-17T09:04:11.633Z,4.50
2022-10-17T09:06:41.984Z,4.30
2022-10-17T09:09:16.507Z,4.60
2022-10-17T09:11:50.060Z,4.83
2022-10-17T09:14:30.980Z,3.33
2022-10-17T09:17:05.688Z,3.90
2022-10-17T09:19:36.272Z,4.57
2022-10-17T09:22:05.888Z,5.80
2022-10-17T09:24:39.827Z,7.27
2022-10-17T09:27:12.353Z,6.77
2022-10-17T09:29:43.872Z,8.30
2022-10-17T09:32:16.282Z,6.80
2022-10-17T09:34:44.206Z,4.87
2022-10-17T09:37:15.118Z,4.50
2022-10-17T09:39:43.196Z,4.10
2022-10-17T09:42:13.421Z,3.80
2022-10-17T09:44:43.943Z,3.57
2022-10-17T09:47:18.706Z,4.20
2022-10-17T09:49:47.048Z,4.17
2022-10-17T09:52:17.957Z,3.60
2022-10-17T09:54:47.360Z,3.90
2022-10-17T09:57:16.005Z,3.53
2022-10-17T09:59:44.908Z,3.90
2022-10-17T10:02:17.792Z,3.40
2022-10-17T10:05:04.735Z,4.60
2022-10-17T10:07:35.885Z,4.00
2022-10-17T10:10:04.037Z,3.47
2022-10-17T10:12:33.231Z,2.90
2022-10-17T10:15:01.351Z,6.50
2022-10-17T10:17:30.784Z,2.97
2022-10-17T10:19:58.326Z,3.57
2022-10-17T10:22:26.814Z,3.53
2022-10-17T10:25:14.433Z,3.50
2022-10-17T10:27:43.317Z,4.70
2022-10-17T10:30:18.346Z,3.77
2022-10-17T10:32:46.787Z,4.40
2022-10-17T10:35:20.704Z,3.80
2022-10-17T10:37:50.744Z,3.80
2022-10-17T10:40:21.170Z,4.53
2022-10-17T10:42:50.051Z,3.87
2022-10-17T10:45:35.886Z,2.67
2022-10-17T10:48:15.037Z,3.30
2022-10-17T10:50:45.446Z,3.50
2022-10-17T10:53:17.978Z,2.93
2022-10-17T10:55:48.853Z,4.33
2022-10-17T10:58:25.320Z,4.00
2022-10-17T11:00:53.477Z,3.50
2022-10-17T11:03:24.096Z,4.00
2022-10-17T11:05:54.267Z,4.00
2022-10-17T11:08:24.470Z,3.07
2022-10-17T11:10:58.380Z,11.93
2022-10-17T11:13:29.133Z,3.20
2022-10-17T11:15:58.540Z,3.83
2022-10-17T11:18:27.598Z,3.27
2022-10-17T11:23:45.658Z,3.30
2022-10-17T11:26:25.952Z,3.13
2022-10-17T11:28:53.844Z,4.10
2022-10-17T11:31:22.785Z,3.73
2022-10-17T11:33:53.410Z,3.30
2022-10-17T11:36:25.236Z,3.07
2022-10-17T11:38:55.789Z,3.90
2022-10-17T11:41:28.037Z,4.90
2022-10-17T11:43:58.682Z,5.20
2022-10-17T11:46:26.838Z,3.87
2022-10-17T11:49:01.747Z,4.83
2022-10-17T11:54:20.029Z,4.50
2022-10-17T11:56:51.845Z,3.80
2022-10-17T11:59:41.299Z,6.67
2022-10-17T12:02:10.731Z,4.60
2022-10-17T12:04:49.636Z,4.10
2022-10-17T12:07:20.802Z,4.57
2022-10-17T12:09:53.684Z,4.80
2022-10-17T12:12:27.954Z,5.33
2022-10-17T12:15:16.082Z,3.50
2022-10-17T12:17:44.783Z,5.07
2022-10-17T12:20:26.467Z,4.33
2022-10-17T12:22:54.862Z,4.27
2022-10-17T12:25:23.569Z,3.37
2022-10-17T12:28:02.893Z,3.70
2022-10-17T12:30:30.450Z,5.23
2022-10-17T12:33:07.950Z,4.60
2022-10-17T12:35:38.545Z,4.63
2022-10-17T12:38:19.893Z,3.97
2022-10-17T12:40:57.755Z,4.10
2022-10-17T12:46:46.075Z,4.40
2022-10-17T12:49:32.678Z,4.10
2022-10-17T12:52:21.618Z,4.33
2022-10-17T12:55:07.102Z,3.90
2022-10-17T12:57:41.784Z,3.70
2022-10-17T13:00:17.325Z,4.17
2022-10-17T13:02:45.590Z,4.10
2022-10-17T13:05:15.719Z,4.70
2022-10-17T13:07:45.281Z,4.53
2022-10-17T13:10:21.055Z,4.17
2022-10-17T13:12:50.224Z,4.37
2022-10-17T13:15:20.574Z,3.83
2022-10-17T13:17:56.616Z,3.60
2022-10-17T13:20:29.132Z,6.00
2022-10-17T13:22:59.448Z,4.10
2022-10-17T13:25:27.396Z,3.90
2022-10-17T13:28:05.275Z,3.40
2022-10-17T13:30:34.841Z,3.90
2022-10-17T13:33:03.112Z,3.97
2022-10-17T13:36:01.869Z,3.77
2022-10-17T13:38:22.460Z,4.30
2022-10-17T13:40:50.743Z,3.80
2022-10-17T13:43:19.656Z,3.83
2022-10-17T13:45:50.554Z,6.80
2022-10-17T13:48:20.337Z,5.20
2022-10-17T13:50:50.116Z,4.50
2022-10-17T13:53:19.720Z,3.83
2022-10-17T13:56:09.780Z,5.03
2022-10-17T13:58:46.763Z,4.20
2022-10-17T14:01:17.141Z,4.57
2022-10-17T14:03:48.584Z,4.17
2022-10-17T14:06:21.039Z,3.80
2022-10-17T14:08:50.862Z,4.13
2022-10-17T14:11:23.045Z,3.70
2022-10-17T14:13:51.429Z,3.67
2022-10-17T14:16:20.385Z,3.60
2022-10-17T14:18:49.287Z,4.97
2022-10-17T14:21:43.761Z,4.33
2022-10-17T14:24:17.683Z,4.20
2022-10-17T14:26:48.708Z,4.70
2022-10-17T14:29:21.767Z,4.40
2022-10-17T14:31:53.486Z,4.60
2022-10-17T14:34:23.119Z,3.70
2022-10-17T14:36:52.174Z,3.80
2022-10-17T14:39:21.631Z,4.03
2022-10-17T14:41:50.570Z,3.60
2022-10-17T14:44:21.451Z,3.87
2022-10-17T14:46:53.625Z,3.60
2022-10-17T14:49:25.065Z,3.60
2022-10-17T14:52:15.114Z,3.73
2022-10-17T14:54:46.365Z,4.20
2022-10-17T14:57:17.050Z,4.40
2022-10-17T14:59:59.918Z,4.00
2022-10-17T15:05:16.604Z,4.70
2022-10-17T15:07:44.442Z,4.13
2022-10-17T15:10:22.075Z,4.63
2022-10-17T15:12:57.531Z,4.40
2022-10-17T15:15:26.744Z,4.50
2022-10-17T15:17:55.693Z,4.27
2022-10-17T15:20:26.074Z,5.00
2022-10-17T15:22:53.761Z,4.80
2022-10-17T15:25:21.769Z,5.10
2022-10-17T15:27:49.341Z,4.80
2022-10-17T15:30:21.599Z,4.80
2022-10-17T15:32:50.155Z,5.33
2022-10-17T15:35:19.425Z,4.40
2022-10-17T15:37:50.896Z,5.17
2022-10-17T15:40:19.070Z,5.27
2022-10-17T15:42:46.728Z,5.60
2022-10-17T15:45:16.366Z,5.50
2022-10-17T15:47:44.662Z,5.67
2022-10-17T15:50:14.397Z,5.13
2022-10-17T15:52:43.582Z,5.77
2022-10-17T15:55:11.427Z,4.67
2022-10-17T15:57:40.399Z,5.30
2022-10-17T16:00:16.509Z,5.00
2022-10-17T16:02:44.533Z,4.80
2022-10-17T16:05:14.859Z,5.07
2022-10-17T16:07:46.034Z,7.37
2022-10-17T16:10:13.899Z,6.97
2022-10-17T16:12:42.068Z,7.70
2022-10-17T16:15:14.234Z,5.20
2022-10-17T16:17:43.781Z,5.93
2022-10-17T16:20:11.839Z,5.20
2022-10-17T16:22:41.698Z,5.57
2022-10-17T16:25:19.667Z,5.20
2022-10-17T16:27:47.715Z,7.93
2022-10-17T16:30:15.615Z,5.97
2022-10-17T16:32:43.645Z,7.67
2022-10-17T16:35:12.479Z,6.43
2022-10-17T16:37:40.321Z,8.90
2022-10-17T16:40:08.346Z,6.67
2022-10-17T16:42:37.291Z,8.47
2022-10-17T16:45:05.196Z,8.10
2022-10-17T16:47:32.968Z,7.40
2022-10-17T16:50:00.780Z,5.63
2022-10-17T16:52:28.585Z,6.53
2022-10-17T16:54:56.626Z,5.37
2022-10-17T16:57:24.337Z,5.30
2022-10-17T16:59:53.154Z,5.00
2022-10-17T17:02:21.545Z,5.20
2022-10-17T17:04:49.455Z,5.80
2022-10-17T17:07:18.484Z,7.43
2022-10-17T17:09:46.241Z,6.90
2022-10-17T17:12:13.822Z,9.00
2022-10-17T17:14:41.547Z,13.03
2022-10-17T17:17:19.433Z,20.93
2022-10-17T17:19:58.322Z,17.03
2022-10-17T17:22:26.041Z,19.33
2022-10-17T17:24:53.654Z,13.20
2022-10-17T17:27:21.561Z,10.70
2022-10-17T17:29:49.352Z,12.20
2022-10-17T17:32:18.303Z,13.30
2022-10-17T17:34:46.448Z,12.27
2022-10-17T17:37:14.385Z,11.70
2022-10-17T17:39:41.912Z,9.57
2022-10-17T17:42:09.354Z,8.60
2022-10-17T17:44:38.534Z,11.10
2022-10-17T17:47:06.130Z,10.50
2022-10-17T17:49:35.262Z,11.33
2022-10-17T17:54:38.566Z,9.10
2022-10-17T17:57:08.634Z,9.43
2022-10-17T17:59:36.332Z,8.60
2022-10-17T18:02:06.248Z,7.73
2022-10-17T18:04:35.543Z,8.63
2022-10-17T18:07:03.170Z,9.60
2022-10-17T18:09:31.116Z,8.60
2022-10-17T18:11:58.816Z,9.80
2022-10-17T18:14:26.656Z,8.63
2022-10-17T18:16:54.229Z,19.10
2022-10-17T18:19:23.849Z,10.20
2022-10-17T18:21:52.687Z,16.00
2022-10-17T18:24:20.516Z,10.93
2022-10-17T18:26:48.203Z,8.20
2022-10-17T18:29:16.076Z,13.50
2022-10-17T18:31:43.572Z,13.30
2022-10-17T18:34:13.498Z,10.43
2022-10-17T18:36:41.122Z,10.33
2022-10-17T18:39:09.944Z,11.63
2022-10-17T18:41:37.903Z,8.30
2022-10-17T18:44:05.987Z,8.40
2022-10-17T18:46:36.014Z,9.10
2022-10-17T18:49:04.278Z,9.60
2022-10-17T18:51:31.749Z,8.37
2022-10-17T18:53:59.459Z,9.03
2022-10-17T18:56:28.490Z,9.00
2022-10-17T18:58:56.733Z,7.50
2022-10-17T19:01:25.237Z,7.43
2022-10-17T19:03:54.392Z,8.67
2022-10-17T19:06:22.522Z,10.20
2022-10-17T19:08:50.378Z,9.93
2022-10-17T19:11:18.764Z,9.93
2022-10-17T19:13:48.306Z,12.20
2022-10-17T19:16:17.309Z,12.30
2022-10-17T19:18:49.707Z,13.40
2022-10-17T19:21:21.691Z,10.33
2022-10-17T19:23:50.965Z,13.50
2022-10-17T19:26:18.450Z,11.10
2022-10-17T19:28:47.657Z,8.40
2022-10-17T19:31:17.954Z,10.00
2022-10-17T19:33:46.191Z,19.00
2022-10-17T19:36:14.214Z,8.30
2022-10-17T19:38:42.060Z,10.43
2022-10-17T19:41:10.658Z,9.93
2022-10-17T19:43:38.681Z,8.90
2022-10-17T19:46:08.654Z,7.70
2022-10-17T19:48:37.581Z,8.57
2022-10-17T19:51:05.482Z,9.13
2022-10-17T19:53:33.247Z,9.00
2022-10-17T19:56:00.885Z,7.90
2022-10-17T19:58:28.713Z,8.90
2022-10-17T20:00:57.622Z,8.20
2022-10-17T20:03:26.611Z,10.67
2022-10-17T20:05:54.335Z,9.60
2022-10-17T20:08:22.298Z,8.30
2022-10-17T20:10:49.815Z,9.13
2022-10-17T20:13:17.339Z,9.30
2022-10-17T20:15:54.037Z,10.37
2022-10-17T20:18:22.085Z,10.93
2022-10-17T20:20:51.244Z,10.10
2022-10-17T20:23:19.131Z,9.90
2022-10-17T20:25:46.879Z,10.40
2022-10-17T20:28:14.480Z,11.30
2022-10-17T20:30:44.833Z,10.23
2022-10-17T20:33:13.803Z,9.67
2022-10-17T20:35:42.073Z,11.53
2022-10-17T20:38:11.882Z,12.20
2022-10-17T20:40:40.573Z,12.20
2022-10-17T20:43:09.276Z,11.30
2022-10-17T20:45:50.790Z,16.20
2022-10-17T20:48:19.207Z,11.90
2022-10-17T20:50:46.959Z,12.70
2022-10-17T20:56:04.845Z,14.43
2022-10-17T20:58:32.296Z,12.57
2022-10-17T21:00:59.892Z,14.43
2022-10-17T21:03:27.521Z,14.07
2022-10-17T21:05:55.051Z,21.07
2022-10-17T21:08:23.965Z,14.40
2022-10-17T21:10:51.775Z,14.27
2022-10-17T21:13:19.347Z,12.87
2022-10-17T21:15:47.162Z,13.53
2022-10-17T21:18:15.106Z,13.70
2022-10-17T21:20:42.761Z,14.60
2022-10-17T21:23:10.240Z,14.63
2022-10-17T21:25:40.834Z,14.83
2022-10-17T21:28:08.790Z,15.80
2022-10-17T21:30:36.237Z,20.27
2022-10-17T21:33:04.291Z,17.27
2022-10-17T21:35:31.909Z,16.57
2022-10-17T21:37:59.911Z,14.53
2022-10-17T21:40:27.841Z,16.50
2022-10-17T21:42:56.794Z,13.73
2022-10-17T21:45:25.810Z,14.00
2022-10-17T21:48:12.343Z,13.43
2022-10-17T21:50:41.057Z,14.90
2022-10-17T21:53:08.886Z,15.73
2022-10-17T21:55:36.862Z,15.47
2022-10-17T21:58:05.714Z,15.67
2022-10-17T22:00:33.645Z,17.03
2022-10-17T22:03:01.951Z,15.63
2022-10-17T22:05:30.214Z,34.67
2022-10-17T22:07:58.033Z,36.03
2022-10-17T22:10:25.630Z,20.17
2022-10-17T22:12:53.235Z,29.10
2022-10-17T22:15:22.466Z,21.70
2022-10-17T22:17:49.973Z,24.23
2022-10-17T22:20:17.493Z,21.90
2022-10-17T22:22:45.601Z,24.33
2022-10-17T22:25:13.253Z,19.67
2022-10-17T22:27:40.788Z,30.97
2022-10-17T22:30:09.042Z,17.60
2022-10-17T22:32:38.022Z,18.50
2022-10-17T22:35:05.899Z,20.60
2022-10-17T22:37:33.899Z,16.97
2022-10-17T22:40:01.591Z,21.50
2022-10-17T22:42:31.309Z,50.87
2022-10-17T22:44:58.967Z,35.30
2022-10-17T22:47:26.560Z,22.53
2022-10-17T22:49:55.759Z,27.90
2022-10-17T22:52:23.589Z,37.53
2022-10-17T22:54:51.224Z,54.90
2022-10-17T22:57:18.785Z,29.23
2022-10-17T22:59:46.825Z,37.00
2022-10-17T23:02:14.410Z,20.63
2022-10-17T23:04:42.341Z,24.27
2022-10-17T23:07:14.569Z,18.43
2022-10-17T23:09:42.503Z,38.93
2022-10-17T23:12:10.361Z,36.20
2022-10-17T23:14:38.772Z,65.50
2022-10-17T23:17:06.525Z,18.73
2022-10-17T23:19:34.403Z,29.47
2022-10-17T23:22:02.288Z,20.37
2022-10-17T23:24:31.578Z,35.77
2022-10-17T23:26:59.649Z,26.13
2022-10-17T23:29:27.776Z,18.27
2022-10-17T23:31:55.914Z,17.47
2022-10-17T23:34:23.539Z,31.43
2022-10-17T23:36:52.484Z,61.43
2022-10-17T23:39:20.222Z,20.07
2022-10-17T23:41:49.156Z,32.60
2022-10-17T23:44:17.232Z,19.33
2022-10-17T23:46:45.253Z,14.53
2022-10-17T23:49:12.774Z,26.80
2022-10-17T23:51:40.703Z,19.30
2022-10-17T23:54:08.270Z,14.47
2022-10-17T23:56:35.958Z,15.90
2022-10-17T23:59:05.184Z,14.00
